sensor_id;sensor_type;location;lat;lon;timestamp;pressure;altitude;pressure_sealevel;temperature;humidity
39793;BME280;26080;42.264;24.536;2022-12-07T00:02:01;99501.44;;;3.97;100.00
39793;BME280;26080;42.264;24.536;2022-12-07T00:04:26;99502.31;;;3.99;100.00
39793;BME280;26080;42.264;24.536;2022-12-07T00:06:52;99499.75;;;3.98;100.00
39793;BME280;26080;42.264;24.536;2022-12-07T00:09:18;99509.25;;;3.96;100.00
39793;BME280;26080;42.264;24.536;2022-12-07T00:11:44;99503.31;;;3.91;100.00
39793;BME280;26080;42.264;24.536;2022-12-07T00:14:15;99454.75;;;3.51;100.00
39793;BME280;26080;42.264;24.536;2022-12-07T00:16:41;99507.00;;;3.76;100.00
39793;BME280;26080;42.264;24.536;2022-12-07T00:19:07;99494.94;;;3.75;100.00
39793;BME280;26080;42.264;24.536;2022-12-07T00:21:34;99496.75;;;3.71;100.00
39793;BME280;26080;42.264;24.536;2022-12-07T00:24:00;99453.16;;;3.44;100.00
39793;BME280;26080;42.264;24.536;2022-12-07T00:26:28;99489.13;;;3.61;100.00
39793;BME280;26080;42.264;24.536;2022-12-07T00:28:56;99497.81;;;3.58;100.00
39793;BME280;26080;42.264;24.536;2022-12-07T00:31:24;99511.78;;;3.48;100.00
39793;BME280;26080;42.264;24.536;2022-12-07T00:33:50;99486.91;;;3.36;100.00
39793;BME280;26080;42.264;24.536;2022-12-07T00:36:19;99503.22;;;3.43;100.00
39793;BME280;26080;42.264;24.536;2022-12-07T00:38:45;99500.66;;;3.40;100.00
39793;BME280;26080;42.264;24.536;2022-12-07T00:41:13;99498.91;;;3.42;100.00
39793;BME280;26080;42.264;24.536;2022-12-07T00:43:40;99497.09;;;3.48;100.00
39793;BME280;26080;42.264;24.536;2022-12-07T00:46:05;99498.75;;;3.52;100.00
39793;BME280;26080;42.264;24.536;2022-12-07T00:48:31;99492.69;;;3.53;100.00
39793;BME280;26080;42.264;24.536;2022-12-07T00:50:57;99496.06;;;3.60;100.00
39793;BME280;26080;42.264;24.536;2022-12-07T00:53:22;99492.56;;;3.61;100.00
39793;BME280;26080;42.264;24.536;2022-12-07T00:55:48;99488.13;;;3.68;100.00
39793;BME280;26080;42.264;24.536;2022-12-07T00:58:14;99489.00;;;3.68;100.00
39793;BME280;26080;42.264;24.536;2022-12-07T01:00:41;99485.44;;;3.75;100.00
39793;BME280;26080;42.264;24.536;2022-12-07T01:03:09;99486.31;;;3.74;100.00
39793;BME280;26080;42.264;24.536;2022-12-07T01:05:35;99474.38;;;3.66;100.00
39793;BME280;26080;42.264;24.536;2022-12-07T01:08:01;99490.63;;;3.75;100.00
39793;BME280;26080;42.264;24.536;2022-12-07T01:10:26;99478.44;;;3.80;100.00
39793;BME280;26080;42.264;24.536;2022-12-07T01:12:52;99467.25;;;3.78;100.00
39793;BME280;26080;42.264;24.536;2022-12-07T01:15:18;99464.66;;;3.78;100.00
39793;BME280;26080;42.264;24.536;2022-12-07T01:17:44;99464.66;;;3.78;100.00
39793;BME280;26080;42.264;24.536;2022-12-07T01:20:10;99465.59;;;3.74;100.00
39793;BME280;26080;42.264;24.536;2022-12-07T01:22:40;99457.75;;;3.77;100.00
39793;BME280;26080;42.264;24.536;2022-12-07T01:25:07;99459.44;;;3.80;100.00
39793;BME280;26080;42.264;24.536;2022-12-07T01:27:33;99459.41;;;3.81;100.00
39793;BME280;26080;42.264;24.536;2022-12-07T01:29:59;99456.00;;;3.79;100.00
39793;BME280;26080;42.264;24.536;2022-12-07T01:32:25;99459.59;;;3.72;100.00
39793;BME280;26080;42.264;24.536;2022-12-07T01:34:50;99457.09;;;3.66;100.00
39793;BME280;26080;42.264;24.536;2022-12-07T01:37:16;99452.78;;;3.65;100.00
39793;BME280;26080;42.264;24.536;2022-12-07T01:39:41;99455.50;;;3.59;100.00
39793;BME280;26080;42.264;24.536;2022-12-07T01:42:11;99457.19;;;3.60;100.00
39793;BME280;26080;42.264;24.536;2022-12-07T01:47:40;99427.09;;;3.53;100.00
39793;BME280;26080;42.264;24.536;2022-12-07T01:50:06;99459.63;;;3.71;100.00
39793;BME280;26080;42.264;24.536;2022-12-07T01:52:33;99443.00;;;3.81;100.00
39793;BME280;26080;42.264;24.536;2022-12-07T01:55:02;99446.25;;;3.94;100.00
39793;BME280;26080;42.264;24.536;2022-12-07T01:57:30;99432.38;;;3.96;100.00
39793;BME280;26080;42.264;24.536;2022-12-07T01:59:57;99436.38;;;4.14;100.00
39793;BME280;26080;42.264;24.536;2022-12-07T02:02:27;99436.41;;;4.11;100.00
39793;BME280;26080;42.264;24.536;2022-12-07T02:04:59;99436.47;;;4.08;100.00
39793;BME280;26080;42.264;24.536;2022-12-07T02:07:26;99433.09;;;4.04;100.00
39793;BME280;26080;42.264;24.536;2022-12-07T02:09:53;99429.59;;;4.07;100.00
39793;BME280;26080;42.264;24.536;2022-12-07T02:12:19;99428.59;;;4.14;100.00
39793;BME280;26080;42.264;24.536;2022-12-07T02:14:45;99422.31;;;4.24;100.00
39793;BME280;26080;42.264;24.536;2022-12-07T02:17:21;99400.03;;;4.17;100.00
39793;BME280;26080;42.264;24.536;2022-12-07T02:22:49;99423.69;;;4.43;100.00
39793;BME280;26080;42.264;24.536;2022-12-07T02:30:49;99429.91;;;4.35;100.00
39793;BME280;26080;42.264;24.536;2022-12-07T02:33:30;99424.78;;;4.32;100.00
39793;BME280;26080;42.264;24.536;2022-12-07T02:36:06;99419.53;;;4.35;100.00
39793;BME280;26080;42.264;24.536;2022-12-07T02:43:51;99389.13;;;4.43;100.00
39793;BME280;26080;42.264;24.536;2022-12-07T02:46:23;99408.63;;;4.61;100.00
39793;BME280;26080;42.264;24.536;2022-12-07T02:48:51;99410.06;;;4.74;100.00
39793;BME280;26080;42.264;24.536;2022-12-07T02:51:18;99401.50;;;4.70;100.00
39793;BME280;26080;42.264;24.536;2022-12-07T02:53:44;99413.25;;;4.87;100.00
39793;BME280;26080;42.264;24.536;2022-12-07T02:56:39;99414.00;;;4.90;100.00
39793;BME280;26080;42.264;24.536;2022-12-07T03:10:05;99410.09;;;4.72;100.00
39793;BME280;26080;42.264;24.536;2022-12-07T03:12:40;99405.97;;;4.62;100.00
39793;BME280;26080;42.264;24.536;2022-12-07T03:15:14;99412.53;;;4.40;100.00
39793;BME280;26080;42.264;24.536;2022-12-07T03:17:42;99408.53;;;4.22;100.00
39793;BME280;26080;42.264;24.536;2022-12-07T03:20:13;99402.16;;;4.38;100.00
39793;BME280;26080;42.264;24.536;2022-12-07T03:22:43;99380.09;;;4.19;100.00
39793;BME280;26080;42.264;24.536;2022-12-07T03:25:11;99403.63;;;4.08;100.00
39793;BME280;26080;42.264;24.536;2022-12-07T03:27:53;99401.72;;;4.18;100.00
39793;BME280;26080;42.264;24.536;2022-12-07T03:30:34;99408.75;;;4.13;100.00
39793;BME280;26080;42.264;24.536;2022-12-07T03:33:03;99400.03;;;4.17;100.00
39793;BME280;26080;42.264;24.536;2022-12-07T03:35:40;99391.53;;;4.09;100.00
39793;BME280;26080;42.264;24.536;2022-12-07T03:38:21;99369.31;;;3.96;100.00
39793;BME280;26080;42.264;24.536;2022-12-07T03:43:15;99395.13;;;4.02;100.00
39793;BME280;26080;42.264;24.536;2022-12-07T03:45:44;99395.13;;;4.02;100.00
39793;BME280;26080;42.264;24.536;2022-12-07T03:50:53;99390.63;;;4.11;100.00
39793;BME280;26080;42.264;24.536;2022-12-07T03:53:34;99393.44;;;4.01;100.00
39793;BME280;26080;42.264;24.536;2022-12-07T03:56:02;99398.47;;;4.07;100.00
39793;BME280;26080;42.264;24.536;2022-12-07T03:58:28;99390.84;;;4.01;100.00
39793;BME280;26080;42.264;24.536;2022-12-07T04:00:55;99386.66;;;3.94;100.00
39793;BME280;26080;42.264;24.536;2022-12-07T04:03:20;99393.53;;;3.95;100.00
39793;BME280;26080;42.264;24.536;2022-12-07T04:05:46;99392.19;;;3.75;100.00
39793;BME280;26080;42.264;24.536;2022-12-07T04:08:11;99384.34;;;3.78;100.00
39793;BME280;26080;42.264;24.536;2022-12-07T04:10:36;99387.84;;;3.76;100.00
39793;BME280;26080;42.264;24.536;2022-12-07T04:13:02;99388.91;;;3.64;100.00
39793;BME280;26080;42.264;24.536;2022-12-07T04:15:27;99392.41;;;3.63;100.00
39793;BME280;26080;42.264;24.536;2022-12-07T04:17:53;99384.75;;;3.57;100.00
39793;BME280;26080;42.264;24.536;2022-12-07T04:20:19;99386.44;;;3.60;100.00
39793;BME280;26080;42.264;24.536;2022-12-07T04:22:44;99386.47;;;3.58;100.00
39793;BME280;26080;42.264;24.536;2022-12-07T04:25:10;99382.09;;;3.60;100.00
39793;BME280;26080;42.264;24.536;2022-12-07T04:27:35;99370.75;;;3.66;100.00
39793;BME280;26080;42.264;24.536;2022-12-07T04:30:01;99359.72;;;3.58;100.00
39793;BME280;26080;42.264;24.536;2022-12-07T04:32:26;99375.88;;;3.70;100.00
39793;BME280;26080;42.264;24.536;2022-12-07T04:34:52;99378.75;;;3.53;100.00
39793;BME280;26080;42.264;24.536;2022-12-07T04:37:17;99381.50;;;3.46;100.00
39793;BME280;26080;42.264;24.536;2022-12-07T04:39:43;99387.75;;;3.33;100.00
39793;BME280;26080;42.264;24.536;2022-12-07T04:42:09;99386.03;;;3.32;100.00
39793;BME280;26080;42.264;24.536;2022-12-07T04:44:35;99392.31;;;3.18;100.00
39793;BME280;26080;42.264;24.536;2022-12-07T04:47:00;99389.53;;;3.27;100.00
39793;BME280;26080;42.264;24.536;2022-12-07T04:49:26;99393.91;;;3.25;100.00
39793;BME280;26080;42.264;24.536;2022-12-07T04:51:52;99397.22;;;3.34;100.00
39793;BME280;26080;42.264;24.536;2022-12-07T04:54:18;99388.72;;;3.25;100.00
39793;BME280;26080;42.264;24.536;2022-12-07T04:56:43;99391.22;;;3.32;100.00
39793;BME280;26080;42.264;24.536;2022-12-07T04:59:11;99388.56;;;3.35;100.00
39793;BME280;26080;42.264;24.536;2022-12-07T05:01:36;99388.44;;;3.42;100.00
39793;BME280;26080;42.264;24.536;2022-12-07T05:04:02;99386.06;;;3.30;100.00
39793;BME280;26080;42.264;24.536;2022-12-07T05:06:28;99390.44;;;3.25;100.00
39793;BME280;26080;42.264;24.536;2022-12-07T05:08:54;99396.47;;;3.25;100.00
39793;BME280;26080;42.264;24.536;2022-12-07T05:11:19;99385.19;;;3.31;100.00
39793;BME280;26080;42.264;24.536;2022-12-07T05:14:15;99404.38;;;3.18;100.00
39793;BME280;26080;42.264;24.536;2022-12-07T05:16:41;99400.13;;;3.15;100.00
39793;BME280;26080;42.264;24.536;2022-12-07T05:19:07;99390.44;;;3.25;100.00
39793;BME280;26080;42.264;24.536;2022-12-07T05:21:34;99388.75;;;3.24;100.00
39793;BME280;26080;42.264;24.536;2022-12-07T05:23:59;99397.41;;;3.23;100.00
39793;BME280;26080;42.264;24.536;2022-12-07T05:26:25;99392.44;;;3.09;100.00
39793;BME280;26080;42.264;24.536;2022-12-07T05:28:52;99393.25;;;3.11;100.00
39793;BME280;26080;42.264;24.536;2022-12-07T05:31:18;99396.53;;;3.22;100.00
39793;BME280;26080;42.264;24.536;2022-12-07T05:33:44;99401.78;;;3.19;100.00
39793;BME280;26080;42.264;24.536;2022-12-07T05:36:09;99399.06;;;3.25;100.00
39793;BME280;26080;42.264;24.536;2022-12-07T05:38:34;99397.94;;;3.43;100.00
39793;BME280;26080;42.264;24.536;2022-12-07T05:41:04;99396.13;;;3.47;100.00
39793;BME280;26080;42.264;24.536;2022-12-07T05:43:30;99395.09;;;3.55;100.00
39793;BME280;26080;42.264;24.536;2022-12-07T05:45:56;99401.31;;;3.47;100.00
39793;BME280;26080;42.264;24.536;2022-12-07T05:48:22;99401.44;;;3.39;100.00
39793;BME280;26080;42.264;24.536;2022-12-07T05:50:48;99401.41;;;3.41;100.00
39793;BME280;26080;42.264;24.536;2022-12-07T05:53:14;99405.00;;;3.34;100.00
39793;BME280;26080;42.264;24.536;2022-12-07T05:55:39;99402.50;;;3.29;100.00
39793;BME280;26080;42.264;24.536;2022-12-07T05:58:05;99403.97;;;3.42;100.00
39793;BME280;26080;42.264;24.536;2022-12-07T06:00:49;99389.94;;;3.55;100.00
39793;BME280;26080;42.264;24.536;2022-12-07T06:03:14;99405.59;;;3.49;100.00
39793;BME280;26080;42.264;24.536;2022-12-07T06:05:40;99413.38;;;3.48;100.00
39793;BME280;26080;42.264;24.536;2022-12-07T06:08:05;99415.00;;;3.53;100.00
39793;BME280;26080;42.264;24.536;2022-12-07T06:10:30;99413.19;;;3.60;100.00
39793;BME280;26080;42.264;24.536;2022-12-07T06:12:56;99360.78;;;3.46;100.00
39793;BME280;26080;42.264;24.536;2022-12-07T06:15:21;99411.41;;;3.62;100.00
39793;BME280;26080;42.264;24.536;2022-12-07T06:17:48;99366.91;;;3.39;100.00
39793;BME280;26080;42.264;24.536;2022-12-07T06:20:14;99391.03;;;3.41;100.00
39793;BME280;26080;42.264;24.536;2022-12-07T06:22:39;99414.97;;;3.56;100.00
39793;BME280;26080;42.264;24.536;2022-12-07T06:25:05;99410.53;;;3.63;100.00
39793;BME280;26080;42.264;24.536;2022-12-07T06:27:32;99413.06;;;3.66;100.00
39793;BME280;26080;42.264;24.536;2022-12-07T06:29:58;99406.00;;;3.74;100.00
39793;BME280;26080;42.264;24.536;2022-12-07T06:32:23;99401.53;;;3.84;100.00
39793;BME280;26080;42.264;24.536;2022-12-07T06:34:49;99422.53;;;3.67;100.00
39793;BME280;26080;42.264;24.536;2022-12-07T06:37:14;99425.03;;;3.73;100.00
39793;BME280;26080;42.264;24.536;2022-12-07T06:39:39;99423.38;;;3.68;100.00
39793;BME280;26080;42.264;24.536;2022-12-07T06:42:05;99424.19;;;3.73;100.00
39793;BME280;26080;42.264;24.536;2022-12-07T06:44:30;99416.41;;;3.73;100.00
39793;BME280;26080;42.264;24.536;2022-12-07T06:46:56;99399.19;;;3.69;100.00
39793;BME280;26080;42.264;24.536;2022-12-07T06:49:21;99415.31;;;3.86;100.00
39793;BME280;26080;42.264;24.536;2022-12-07T06:51:47;99416.34;;;3.76;100.00
39793;BME280;26080;42.264;24.536;2022-12-07T06:54:14;99411.91;;;3.84;100.00
39793;BME280;26080;42.264;24.536;2022-12-07T06:56:40;99413.44;;;3.93;100.00
39793;BME280;26080;42.264;24.536;2022-12-07T06:59:06;99415.09;;;3.97;100.00
39793;BME280;26080;42.264;24.536;2022-12-07T07:01:32;99421.47;;;4.24;100.00
39793;BME280;26080;42.264;24.536;2022-12-07T07:03:59;99425.81;;;4.23;100.00
39793;BME280;26080;42.264;24.536;2022-12-07T07:06:24;99416.28;;;4.24;100.00
39793;BME280;26080;42.264;24.536;2022-12-07T07:08:52;99411.97;;;4.24;100.00
39793;BME280;26080;42.264;24.536;2022-12-07T07:11:18;99413.25;;;4.46;100.00
39793;BME280;26080;42.264;24.536;2022-12-07T07:13:44;99406.16;;;4.55;100.00
39793;BME280;26080;42.264;24.536;2022-12-07T07:16:09;99393.88;;;4.63;100.00
39793;BME280;26080;42.264;24.536;2022-12-07T07:18:36;99405.59;;;4.79;100.00
39793;BME280;26080;42.264;24.536;2022-12-07T07:21:01;99409.41;;;5.03;100.00
39793;BME280;26080;42.264;24.536;2022-12-07T07:23:27;99419.47;;;5.17;100.00
39793;BME280;26080;42.264;24.536;2022-12-07T07:25:52;99420.63;;;5.03;100.00
39793;BME280;26080;42.264;24.536;2022-12-07T07:28:18;99417.03;;;5.11;100.00
39793;BME280;26080;42.264;24.536;2022-12-07T07:30:44;99401.53;;;5.08;100.00
39793;BME280;26080;42.264;24.536;2022-12-07T07:33:10;99427.03;;;5.26;100.00
39793;BME280;26080;42.264;24.536;2022-12-07T07:35:35;99412.16;;;5.32;100.00
39793;BME280;26080;42.264;24.536;2022-12-07T07:38:01;99424.75;;;5.49;100.00
39793;BME280;26080;42.264;24.536;2022-12-07T07:40:29;99424.25;;;5.69;100.00
39793;BME280;26080;42.264;24.536;2022-12-07T07:42:55;99430.78;;;5.84;100.00
39793;BME280;26080;42.264;24.536;2022-12-07T07:45:22;99427.13;;;5.92;100.00
39793;BME280;26080;42.264;24.536;2022-12-07T07:47:49;99402.81;;;5.95;100.00
39793;BME280;26080;42.264;24.536;2022-12-07T07:50:15;99369.53;;;5.74;100.00
39793;BME280;26080;42.264;24.536;2022-12-07T07:52:41;99431.63;;;6.18;100.00
39793;BME280;26080;42.264;24.536;2022-12-07T07:55:07;99406.34;;;6.23;100.00
39793;BME280;26080;42.264;24.536;2022-12-07T07:57:37;99433.13;;;6.58;100.00
39793;BME280;26080;42.264;24.536;2022-12-07T08:00:05;99431.84;;;6.71;100.00
39793;BME280;26080;42.264;24.536;2022-12-07T08:02:31;99431.63;;;6.79;100.00
39793;BME280;26080;42.264;24.536;2022-12-07T08:04:56;99428.75;;;6.88;100.00
39793;BME280;26080;42.264;24.536;2022-12-07T08:07:21;99435.41;;;6.97;100.00
39793;BME280;26080;42.264;24.536;2022-12-07T08:09:47;99435.38;;;6.98;100.00
39793;BME280;26080;42.264;24.536;2022-12-07T08:12:12;99408.06;;;6.83;100.00
39793;BME280;26080;42.264;24.536;2022-12-07T08:14:39;99442.38;;;6.96;100.00
39793;BME280;26080;42.264;24.536;2022-12-07T08:17:04;99438.75;;;7.02;100.00
39793;BME280;26080;42.264;24.536;2022-12-07T08:19:30;99440.78;;;7.20;100.00
39793;BME280;26080;42.264;24.536;2022-12-07T08:21:56;99431.88;;;7.27;100.00
39793;BME280;26080;42.264;24.536;2022-12-07T08:24:22;99436.09;;;7.31;100.00
39793;BME280;26080;42.264;24.536;2022-12-07T08:26:56;99435.13;;;7.34;100.00
39793;BME280;26080;42.264;24.536;2022-12-07T08:29:21;99434.19;;;7.36;100.00
39793;BME280;26080;42.264;24.536;2022-12-07T08:31:47;99431.91;;;7.52;100.00
39793;BME280;26080;42.264;24.536;2022-12-07T08:34:13;99430.56;;;7.67;100.00
39793;BME280;26080;42.264;24.536;2022-12-07T08:36:38;99435.59;;;7.73;100.00
39793;BME280;26080;42.264;24.536;2022-12-07T08:39:04;99425.66;;;7.84;100.00
39793;BME280;26080;42.264;24.536;2022-12-07T08:41:29;99425.22;;;7.96;100.00
39793;BME280;26080;42.264;24.536;2022-12-07T08:43:55;99421.38;;;8.07;100.00
39793;BME280;26080;42.264;24.536;2022-12-07T08:46:32;99427.25;;;8.13;100.00
39793;BME280;26080;42.264;24.536;2022-12-07T08:49:09;99417.59;;;8.15;100.00
39793;BME280;26080;42.264;24.536;2022-12-07T08:51:36;99413.00;;;8.22;100.00
39793;BME280;26080;42.264;24.536;2022-12-07T08:54:04;99406.38;;;8.38;100.00
39793;BME280;26080;42.264;24.536;2022-12-07T08:56:30;99400.81;;;8.47;100.00
39793;BME280;26080;42.264;24.536;2022-12-07T08:58:57;99402.16;;;8.57;100.00
39793;BME280;26080;42.264;24.536;2022-12-07T09:01:22;99400.53;;;8.55;100.00
39793;BME280;26080;42.264;24.536;2022-12-07T09:03:48;99393.59;;;8.54;100.00
39793;BME280;26080;42.264;24.536;2022-12-07T09:06:13;99398.19;;;8.47;100.00
39793;BME280;26080;42.264;24.536;2022-12-07T09:08:43;99399.69;;;8.54;100.00
39793;BME280;26080;42.264;24.536;2022-12-07T09:11:09;99366.31;;;8.39;100.00
39793;BME280;26080;42.264;24.536;2022-12-07T09:13:34;99379.97;;;8.46;100.00
39793;BME280;26080;42.264;24.536;2022-12-07T09:16:00;99384.47;;;8.42;100.00
39793;BME280;26080;42.264;24.536;2022-12-07T09:18:26;99346.44;;;8.35;100.00
39793;BME280;26080;42.264;24.536;2022-12-07T09:20:51;99374.69;;;8.71;100.00
39793;BME280;26080;42.264;24.536;2022-12-07T09:23:17;99379.66;;;8.77;100.00
39793;BME280;26080;42.264;24.536;2022-12-07T09:25:42;99368.69;;;8.69;100.00
39793;BME280;26080;42.264;24.536;2022-12-07T09:28:08;99374.88;;;8.88;100.00
39793;BME280;26080;42.264;24.536;2022-12-07T09:30:34;99370.56;;;9.09;100.00
39793;BME280;26080;42.264;24.536;2022-12-07T09:32:59;99367.78;;;9.13;100.00
39793;BME280;26080;42.264;24.536;2022-12-07T09:35:25;99367.63;;;9.16;100.00
39793;BME280;26080;42.264;24.536;2022-12-07T09:37:50;99350.94;;;9.20;100.00
39793;BME280;26080;42.264;24.536;2022-12-07T09:40:17;99348.34;;;9.20;100.00
39793;BME280;26080;42.264;24.536;2022-12-07T09:42:48;99355.25;;;9.22;100.00
39793;BME280;26080;42.264;24.536;2022-12-07T09:45:19;99356.25;;;9.19;100.00
39793;BME280;26080;42.264;24.536;2022-12-07T09:47:46;99351.22;;;9.35;100.00
39793;BME280;26080;42.264;24.536;2022-12-07T09:50:14;99357.09;;;9.40;100.00
39793;BME280;26080;42.264;24.536;2022-12-07T09:52:41;99348.69;;;9.33;100.00
39793;BME280;26080;42.264;24.536;2022-12-07T09:55:16;99346.25;;;9.29;100.00
39793;BME280;26080;42.264;24.536;2022-12-07T09:57:45;99346.00;;;9.35;100.00
39793;BME280;26080;42.264;24.536;2022-12-07T10:00:15;99344.53;;;9.28;100.00
39793;BME280;26080;42.264;24.536;2022-12-07T10:03:01;99334.84;;;9.09;100.00
39793;BME280;26080;42.264;24.536;2022-12-07T10:05:34;99333.72;;;9.15;100.00
39793;BME280;26080;42.264;24.536;2022-12-07T10:08:01;99287.31;;;8.79;100.00
39793;BME280;26080;42.264;24.536;2022-12-07T10:10:31;99319.81;;;8.94;100.00
39793;BME280;26080;42.264;24.536;2022-12-07T10:13:00;99315.50;;;8.93;100.00
39793;BME280;26080;42.264;24.536;2022-12-07T10:23:29;99323.19;;;8.52;100.00
39793;BME280;26080;42.264;24.536;2022-12-07T10:25:55;99324.09;;;8.51;100.00
39793;BME280;26080;42.264;24.536;2022-12-07T10:28:21;99317.06;;;8.53;100.00
39793;BME280;26080;42.264;24.536;2022-12-07T10:31:15;99305.16;;;8.68;100.00
39793;BME280;26080;42.264;24.536;2022-12-07T10:33:54;99299.41;;;8.82;100.00
39793;BME280;26080;42.264;24.536;2022-12-07T10:36:27;99301.38;;;8.97;100.00
39793;BME280;26080;42.264;24.536;2022-12-07T10:39:25;99306.38;;;9.24;100.00
39793;BME280;26080;42.264;24.536;2022-12-07T10:42:00;99295.16;;;9.22;100.00
39793;BME280;26080;42.264;24.536;2022-12-07T10:44:32;99297.56;;;9.06;100.00
39793;BME280;26080;42.264;24.536;2022-12-07T10:52:30;99308.28;;;9.20;100.00
39793;BME280;26080;42.264;24.536;2022-12-07T11:00:25;99297.22;;;9.13;100.00
39793;BME280;26080;42.264;24.536;2022-12-07T11:08:21;99288.59;;;9.11;100.00
39793;BME280;26080;42.264;24.536;2022-12-07T11:11:23;99284.78;;;9.20;100.00
39793;BME280;26080;42.264;24.536;2022-12-07T11:17:10;99273.50;;;9.18;100.00
39793;BME280;26080;42.264;24.536;2022-12-07T11:19:54;99269.53;;;9.30;100.00
39793;BME280;26080;42.264;24.536;2022-12-07T11:30:29;99266.66;;;9.15;100.00
39793;BME280;26080;42.264;24.536;2022-12-07T11:33:10;99262.81;;;9.24;100.00
39793;BME280;26080;42.264;24.536;2022-12-07T11:38:37;99253.94;;;9.48;100.00
39793;BME280;26080;42.264;24.536;2022-12-07T11:41:06;99252.53;;;9.60;100.00
39793;BME280;26080;42.264;24.536;2022-12-07T11:46:28;99256.09;;;9.78;100.00
39793;BME280;26080;42.264;24.536;2022-12-07T11:49:19;99229.28;;;9.73;100.00
39793;BME280;26080;42.264;24.536;2022-12-07T11:51:49;99223.88;;;9.77;100.00
39793;BME280;26080;42.264;24.536;2022-12-07T11:54:25;99235.31;;;9.94;100.00
39793;BME280;26080;42.264;24.536;2022-12-07T11:56:53;99235.63;;;9.88;100.00
39793;BME280;26080;42.264;24.536;2022-12-07T11:59:33;99228.75;;;10.04;100.00
39793;BME280;26080;42.264;24.536;2022-12-07T12:02:20;99213.84;;;10.06;100.00
39793;BME280;26080;42.264;24.536;2022-12-07T12:04:59;99237.75;;;10.17;100.00
39793;BME280;26080;42.264;24.536;2022-12-07T12:07:28;99220.19;;;10.19;100.00
39793;BME280;26080;42.264;24.536;2022-12-07T12:09:55;99221.84;;;10.22;100.00
39793;BME280;26080;42.264;24.536;2022-12-07T12:12:50;99224.72;;;10.34;100.00
39793;BME280;26080;42.264;24.536;2022-12-07T12:23:20;99185.31;;;10.00;100.00
39793;BME280;26080;42.264;24.536;2022-12-07T12:26:01;99210.44;;;10.23;100.00
39793;BME280;26080;42.264;24.536;2022-12-07T12:31:13;99200.84;;;10.23;100.00
39793;BME280;26080;42.264;24.536;2022-12-07T12:33:44;99195.09;;;10.34;100.00
39793;BME280;26080;42.264;24.536;2022-12-07T12:38:51;99182.88;;;10.52;100.00
39793;BME280;26080;42.264;24.536;2022-12-07T12:44:02;99188.84;;;10.55;100.00
39793;BME280;26080;42.264;24.536;2022-12-07T12:51:45;99181.56;;;10.43;100.00
39793;BME280;26080;42.264;24.536;2022-12-07T13:02:31;99185.97;;;10.24;100.00
39793;BME280;26080;42.264;24.536;2022-12-07T13:15:36;99186.97;;;10.21;100.00
39793;BME280;26080;42.264;24.536;2022-12-07T13:20:55;99183.72;;;10.16;100.00
39793;BME280;26080;42.264;24.536;2022-12-07T13:26:18;99189.22;;;10.10;100.00
39793;BME280;26080;42.264;24.536;2022-12-07T13:28:49;99188.44;;;10.08;100.00
39793;BME280;26080;42.264;24.536;2022-12-07T13:33:45;99186.25;;;9.99;100.00
39793;BME280;26080;42.264;24.536;2022-12-07T13:36:37;99193.31;;;9.97;100.00
39793;BME280;26080;42.264;24.536;2022-12-07T13:41:44;99184.72;;;9.76;100.00
39793;BME280;26080;42.264;24.536;2022-12-07T13:44:14;99193.56;;;9.73;100.00
39793;BME280;26080;42.264;24.536;2022-12-07T13:49:30;99167.44;;;9.53;100.00
39793;BME280;26080;42.264;24.536;2022-12-07T13:54:44;99187.66;;;9.68;100.00
39793;BME280;26080;42.264;24.536;2022-12-07T13:57:10;99143.28;;;9.48;100.00
39793;BME280;26080;42.264;24.536;2022-12-07T13:59:35;99181.38;;;9.72;100.00
39793;BME280;26080;42.264;24.536;2022-12-07T14:02:16;99158.41;;;9.60;100.00
39793;BME280;26080;42.264;24.536;2022-12-07T14:04:42;99174.44;;;9.71;100.00
39793;BME280;26080;42.264;24.536;2022-12-07T14:07:21;99178.13;;;9.67;100.00
39793;BME280;26080;42.264;24.536;2022-12-07T14:10:02;99175.81;;;9.61;100.00
39793;BME280;26080;42.264;24.536;2022-12-07T14:12:30;99188.22;;;9.56;100.00
39793;BME280;26080;42.264;24.536;2022-12-07T14:14:56;99183.28;;;9.50;100.00
39793;BME280;26080;42.264;24.536;2022-12-07T14:17:25;99185.38;;;9.42;100.00
39793;BME280;26080;42.264;24.536;2022-12-07T14:19:56;99180.41;;;9.36;100.00
39793;BME280;26080;42.264;24.536;2022-12-07T14:25:22;99187.09;;;9.23;100.00
39793;BME280;26080;42.264;24.536;2022-12-07T14:27:57;99182.19;;;9.15;100.00
39793;BME280;26080;42.264;24.536;2022-12-07T14:30:26;99184.38;;;9.05;100.00
39793;BME280;26080;42.264;24.536;2022-12-07T14:33:09;99192.00;;;8.89;100.00
39793;BME280;26080;42.264;24.536;2022-12-07T14:35:37;99182.66;;;8.84;100.00
39793;BME280;26080;42.264;24.536;2022-12-07T14:38:05;99186.25;;;8.81;100.00
39793;BME280;26080;42.264;24.536;2022-12-07T14:40:31;99181.94;;;8.80;100.00
39793;BME280;26080;42.264;24.536;2022-12-07T14:43:00;99181.28;;;8.75;100.00
39793;BME280;26080;42.264;24.536;2022-12-07T14:45:27;99179.78;;;8.70;100.00
39793;BME280;26080;42.264;24.536;2022-12-07T14:47:53;99159.66;;;8.51;100.00
39793;BME280;26080;42.264;24.536;2022-12-07T14:50:19;99176.03;;;8.55;100.00
39793;BME280;26080;42.264;24.536;2022-12-07T14:53:16;99170.34;;;8.45;100.00
39793;BME280;26080;42.264;24.536;2022-12-07T14:55:42;99154.50;;;8.28;100.00
39793;BME280;26080;42.264;24.536;2022-12-07T14:58:14;99182.97;;;8.34;100.00
39793;BME280;26080;42.264;24.536;2022-12-07T15:00:40;99188.22;;;8.32;100.00
39793;BME280;26080;42.264;24.536;2022-12-07T15:03:06;99191.50;;;8.16;100.00
39793;BME280;26080;42.264;24.536;2022-12-07T15:05:32;99190.22;;;8.04;100.00
39793;BME280;26080;42.264;24.536;2022-12-07T15:07:58;99194.25;;;7.89;100.00
39793;BME280;26080;42.264;24.536;2022-12-07T15:10:26;99189.34;;;7.82;100.00
39793;BME280;26080;42.264;24.536;2022-12-07T15:12:55;99188.66;;;7.77;100.00